Time;durP1;ratioP1;P1;durP2;ratioP2;P2;SDS_P1;SDS_P2;PMS_P1;PMS_P2;Temp;Humidity;BMP_temperature;BMP_pressure;BME280_temperature;BME280_humidity;BME280_pressure;Samples;Min_cycle;Max_cycle;Signal;HPM_P1;HPM_P2
2022/03/10 00:07:25;;;;;;;2.63;2.20;;;;;;;-148.93;100.00;62180.91;20996766;28;20063;-77
2022/03/10 00:17:27;;;;;;;2.55;2.05;;;;;;;-148.93;100.00;62180.91;20994613;28;20053;-77
2022/03/10 00:27:29;;;;;;;2.60;2.10;;;;;;;-148.93;100.00;62180.91;20993895;28;20056;-76
2022/03/10 00:37:30;;;;;;;2.25;2.05;;;;;;;-148.93;100.00;62180.91;20992956;28;20055;-77
2022/03/10 00:47:33;;;;;;;2.80;2.08;;;;;;;-148.93;100.00;62180.91;20992435;28;20049;-77
2022/03/10 00:57:35;;;;;;;1.85;1.67;;;;;;;-148.93;100.00;62180.91;20957636;28;20102;-77
2022/03/10 01:07:37;;;;;;;2.33;2.13;;;;;;;-148.93;100.00;62180.91;20991126;28;20060;-77
2022/03/10 01:17:39;;;;;;;2.72;2.10;;;;;;;-148.93;100.00;62180.91;20989941;28;20551;-77
2022/03/10 01:27:41;;;;;;;2.92;2.30;;;;;;;-148.93;100.00;62180.91;20989622;28;20048;-77
2022/03/10 01:37:43;;;;;;;2.28;2.03;;;;;;;-148.93;100.00;62180.91;20989040;28;20052;-77
2022/03/10 01:47:45;;;;;;;2.63;2.28;;;;;;;-148.93;100.00;62180.91;20971119;28;20048;-77
2022/03/10 01:57:47;;;;;;;3.00;2.38;;;;;;;-148.93;100.00;62180.91;21005313;28;20063;-77
2022/03/10 02:18:09;;;;;;;2.25;2.05;;;;;;;-148.93;100.00;62180.91;21000339;28;20054;-77
2022/03/10 02:28:11;;;;;;;2.65;2.00;;;;;;;-148.93;100.00;62180.91;20996917;28;20135;-77
2022/03/10 02:38:19;;;;;;;3.10;2.25;;;;;;;-148.93;100.00;62180.91;21014572;28;20056;-77
2022/03/10 02:48:21;;;;;;;2.45;2.08;;;;;;;-148.93;100.00;62180.91;20996809;28;20584;-77
2022/03/10 02:58:23;;;;;;;2.40;2.20;;;;;;;-148.93;100.00;62180.91;21013449;28;20048;-77
2022/03/10 03:08:25;;;;;;;3.88;2.55;;;;;;;-148.93;100.00;62180.91;21004798;28;20064;-77
2022/03/10 03:18:26;;;;;;;2.83;2.20;;;;;;;-148.93;100.00;62180.91;20999289;28;20106;-77
2022/03/10 03:28:28;;;;;;;4.10;2.42;;;;;;;-148.93;100.00;62180.91;20998741;28;20493;-77
2022/03/10 03:38:30;;;;;;;2.67;2.10;;;;;;;-148.93;100.00;62180.91;20998355;28;20414;-77
2022/03/10 03:48:32;;;;;;;2.60;2.35;;;;;;;-148.93;100.00;62180.91;20997120;28;20110;-77
2022/03/10 03:58:33;;;;;;;2.53;1.98;;;;;;;-148.93;100.00;62180.91;20978817;28;20494;-77
2022/03/10 04:08:35;;;;;;;2.63;2.15;;;;;;;-148.93;100.00;62180.91;20994456;28;20056;-77
2022/03/10 04:18:37;;;;;;;2.28;2.08;;;;;;;-148.93;100.00;62180.91;20994132;28;20052;-77
2022/03/10 04:28:39;;;;;;;2.75;2.00;;;;;;;-148.93;100.00;62180.91;20975955;28;20074;-77
2022/03/10 04:38:41;;;;;;;2.65;2.42;;;;;;;-148.93;100.00;62180.91;20993119;28;20047;-77
2022/03/10 04:48:43;;;;;;;2.55;2.00;;;;;;;-148.93;100.00;62180.91;20992149;28;20051;-77
2022/03/10 04:58:45;;;;;;;2.95;2.28;;;;;;;-148.93;100.00;62180.91;20991261;28;20097;-77
2022/03/10 05:08:46;;;;;;;3.17;2.25;;;;;;;-148.93;100.00;62180.91;20973362;28;20397;-76
2022/03/10 05:18:48;;;;;;;2.95;2.17;;;;;;;-148.93;100.00;62180.91;20972465;28;20045;-77
2022/03/10 05:28:50;;;;;;;2.65;1.92;;;;;;;-148.93;100.00;62180.91;20971298;28;20114;-75
2022/03/10 05:38:52;;;;;;;2.70;1.95;;;;;;;-148.93;100.00;62180.91;20971167;28;20048;-76
2022/03/10 05:48:56;;;;;;;2.83;2.05;;;;;;;-148.93;100.00;62180.91;20988804;28;20045;-76
2022/03/10 05:58:57;;;;;;;2.38;1.90;;;;;;;-148.93;100.00;62180.91;20988280;28;20110;-76
2022/03/10 06:08:59;;;;;;;2.90;1.70;;;;;;;-148.93;100.00;62180.91;20988640;28;20121;-76
2022/03/10 06:19:01;;;;;;;2.92;1.90;;;;;;;-148.93;100.00;62180.91;20987450;28;20405;-77
2022/03/10 06:29:05;;;;;;;2.20;1.63;;;;;;;-148.93;100.00;62180.91;20987331;28;20057;-76
2022/03/10 06:39:08;;;;;;;3.07;1.80;;;;;;;-148.93;100.00;62180.91;20955680;28;20044;-76
2022/03/10 06:49:10;;;;;;;2.47;2.00;;;;;;;-148.93;100.00;62180.91;21001903;28;20059;-76
2022/03/10 06:59:12;;;;;;;2.20;2.00;;;;;;;-148.93;100.00;62180.91;20992823;28;20498;-76
2022/03/10 07:09:14;;;;;;;2.92;1.70;;;;;;;-148.93;100.00;62180.91;21000361;28;20493;-76
2022/03/10 07:19:16;;;;;;;2.88;2.30;;;;;;;-148.93;100.00;62180.91;20982056;28;20044;-76
2022/03/10 07:29:18;;;;;;;2.85;1.95;;;;;;;-148.93;100.00;62180.91;20998824;28;20139;-76
2022/03/10 07:39:20;;;;;;;2.92;2.13;;;;;;;-148.93;100.00;62180.91;20996588;28;20055;-76
2022/03/10 07:49:21;;;;;;;2.58;1.50;;;;;;;-148.93;100.00;62180.91;20921274;28;20060;-76
2022/03/10 07:59:23;;;;;;;2.50;2.10;;;;;;;-148.93;100.00;62180.91;20913327;28;20065;-76
2022/03/10 08:09:25;;;;;;;2.03;1.70;;;;;;;-148.93;100.00;62180.91;20912869;28;20053;-77
2022/03/10 08:19:27;;;;;;;2.42;1.98;;;;;;;-148.93;100.00;62180.91;20912320;28;20045;-76
2022/03/10 08:29:29;;;;;;;3.35;1.73;;;;;;;-148.93;100.00;62180.91;20906093;28;20098;-76
2022/03/10 08:39:31;;;;;;;3.53;2.63;;;;;;;-148.93;100.00;62180.91;20939440;28;20056;-76
2022/03/10 08:49:33;;;;;;;2.20;1.95;;;;;;;-148.93;100.00;62180.91;20987665;28;20041;-76
2022/03/10 08:59:35;;;;;;;2.63;2.00;;;;;;;-148.93;100.00;62180.91;20991392;28;20079;-76
2022/03/10 09:09:37;;;;;;;2.42;2.20;;;;;;;-148.93;100.00;62180.91;20990176;28;20052;-76
2022/03/10 09:19:39;;;;;;;3.03;2.00;;;;;;;-148.93;100.00;62180.91;20990259;28;20045;-76
2022/03/10 09:29:40;;;;;;;2.63;2.13;;;;;;;-148.93;100.00;62180.91;20955262;28;20060;-76
2022/03/10 09:39:42;;;;;;;2.67;2.33;;;;;;;-148.93;100.00;62180.91;20978143;28;20053;-76
2022/03/10 09:49:45;;;;;;;2.80;2.08;;;;;;;-148.93;100.00;62180.91;20988505;28;20036;-76
2022/03/10 09:59:51;;;;;;;3.72;2.20;;;;;;;-148.93;100.00;62180.91;20970694;28;20498;-76
2022/03/10 10:09:56;;;;;;;2.88;2.00;;;;;;;-148.93;100.00;62180.91;20988171;28;20056;-76
2022/03/10 10:19:59;;;;;;;3.28;2.42;;;;;;;-148.93;100.00;62180.91;20974059;28;20039;-76
2022/03/10 10:30:12;;;;;;;3.05;2.22;;;;;;;-148.93;100.00;62180.91;20931785;28;20037;-77
2022/03/10 10:40:19;;;;;;;3.97;2.70;;;;;;;-148.93;100.00;62180.91;20961841;28;20090;-77
2022/03/10 10:50:21;;;;;;;7.00;2.67;;;;;;;-148.93;100.00;62180.91;20976934;28;20360;-77
2022/03/10 11:00:23;;;;;;;4.55;2.40;;;;;;;-148.93;100.00;62180.91;20918465;28;20063;-77
2022/03/10 11:10:25;;;;;;;5.57;2.95;;;;;;;-148.93;100.00;62180.91;20928093;28;20041;-77
2022/03/10 11:20:30;;;;;;;4.75;2.58;;;;;;;-148.93;100.00;62180.91;20908255;28;20436;-77
2022/03/10 11:30:33;;;;;;;5.25;2.85;;;;;;;-148.93;100.00;62180.91;20922739;28;20053;-77
2022/03/10 11:40:53;;;;;;;3.45;2.20;;;;;;;-148.93;100.00;62180.91;20915319;28;20561;-77
2022/03/10 11:50:55;;;;;;;5.07;2.70;;;;;;;-148.93;100.00;62180.91;20946096;28;20051;-79
2022/03/10 12:00:57;;;;;;;5.20;2.65;;;;;;;-148.93;100.00;62180.91;20945731;28;20122;-77
2022/03/10 12:11:03;;;;;;;5.05;2.80;;;;;;;-148.93;100.00;62180.91;20896084;28;20045;-77
2022/03/10 12:21:29;;;;;;;2.88;2.45;;;;;;;-148.93;100.00;62180.91;20918377;28;20078;-77
2022/03/10 12:31:35;;;;;;;5.15;2.40;;;;;;;-148.93;100.00;62180.91;20978199;28;20489;-77
2022/03/10 12:41:39;;;;;;;3.83;2.47;;;;;;;-148.93;100.00;62180.91;20988678;28;20060;-77
2022/03/10 12:51:41;;;;;;;3.95;2.35;;;;;;;-148.93;100.00;62180.91;20992354;28;20083;-77
2022/03/10 13:01:43;;;;;;;3.50;2.45;;;;;;;-148.93;100.00;62180.91;20988244;28;20074;-77
2022/03/10 13:11:45;;;;;;;3.92;2.67;;;;;;;-148.93;100.00;62180.91;20990768;28;20087;-77
2022/03/10 13:22:07;;;;;;;4.05;2.80;;;;;;;-148.93;100.00;62180.91;20972672;28;20133;-77
2022/03/10 13:32:11;;;;;;;3.55;3.00;;;;;;;-148.93;100.00;62180.91;20972090;28;20044;-77
2022/03/10 13:42:19;;;;;;;5.45;2.75;;;;;;;-148.93;100.00;62180.91;20971285;28;20080;-77
2022/03/10 13:52:22;;;;;;;4.47;2.70;;;;;;;-148.93;100.00;62180.91;20987967;28;20052;-77
2022/03/10 14:02:26;;;;;;;5.00;3.03;;;;;;;-148.93;100.00;62180.91;20988344;28;20470;-77
2022/03/10 14:12:30;;;;;;;4.10;2.85;;;;;;;-148.93;100.00;62180.91;20924894;28;20052;-78
2022/03/10 14:22:34;;;;;;;5.75;3.45;;;;;;;-148.93;100.00;62180.91;20924504;28;20067;-75
2022/03/10 14:32:41;;;;;;;4.55;2.97;;;;;;;-148.93;100.00;62180.91;20954503;28;20098;-76
2022/03/10 14:42:43;;;;;;;6.28;3.47;;;;;;;-148.93;100.00;62180.91;20987948;28;20080;-76
2022/03/10 14:52:45;;;;;;;6.43;3.63;;;;;;;-148.93;100.00;62180.91;20968507;28;20498;-76
2022/03/10 15:02:50;;;;;;;6.43;3.63;;;;;;;-148.93;100.00;62180.91;20990796;28;20047;-76
2022/03/10 15:12:54;;;;;;;6.10;3.53;;;;;;;-148.93;100.00;62180.91;20999971;28;20040;-76
2022/03/10 15:22:59;;;;;;;6.35;3.88;;;;;;;-148.93;100.00;62180.91;20999759;28;20045;-76
2022/03/10 15:33:01;;;;;;;4.28;3.22;;;;;;;-148.93;100.00;62180.91;20990699;28;20045;-76
2022/03/10 15:43:05;;;;;;;5.53;3.42;;;;;;;-148.93;100.00;62180.91;20989204;28;20478;-76
2022/03/10 15:53:07;;;;;;;6.20;3.58;;;;;;;-148.93;100.00;62180.91;20969894;28;20044;-76
2022/03/10 16:03:10;;;;;;;5.80;3.55;;;;;;;-148.93;100.00;62180.91;20996021;28;20452;-76
2022/03/10 16:13:13;;;;;;;4.88;3.60;;;;;;;-148.93;100.00;62180.91;20977717;28;20040;-76
2022/03/10 16:23:15;;;;;;;4.53;3.40;;;;;;;-148.93;100.00;62180.91;20994627;28;20068;-76
2022/03/10 16:33:16;;;;;;;5.95;3.65;;;;;;;-148.93;100.00;62180.91;20993976;28;20048;-76
2022/03/10 16:43:19;;;;;;;4.43;3.22;;;;;;;-148.93;100.00;62180.91;20993568;28;20452;-76
2022/03/10 16:53:21;;;;;;;4.47;2.85;;;;;;;-148.93;100.00;62180.91;20974550;28;20051;-76
2022/03/10 17:03:22;;;;;;;3.40;2.55;;;;;;;-148.93;100.00;62180.91;20977032;28;20072;-78
2022/03/10 17:13:24;;;;;;;2.80;2.50;;;;;;;-148.93;100.00;62180.91;20973195;28;20052;-78
2022/03/10 17:23:29;;;;;;;3.80;2.30;;;;;;;-148.93;100.00;62180.91;20972511;28;20044;-78
2022/03/10 17:33:32;;;;;;;2.88;2.35;;;;;;;-148.93;100.00;62180.91;20989803;28;20460;-78
2022/03/10 17:43:35;;;;;;;2.88;2.40;;;;;;;-148.93;100.00;62180.91;20971662;28;20048;-78
2022/03/10 17:53:38;;;;;;;2.55;2.08;;;;;;;-148.93;100.00;62180.91;20970510;28;20482;-77
2022/03/10 18:03:40;;;;;;;2.80;2.03;;;;;;;-148.93;100.00;62180.91;20988348;28;20102;-78
2022/03/10 18:13:44;;;;;;;2.60;2.00;;;;;;;-148.93;100.00;62180.91;20970117;28;20098;-78
2022/03/10 18:23:46;;;;;;;2.28;1.80;;;;;;;-148.93;100.00;62180.91;20969781;28;20053;-78
2022/03/10 18:33:49;;;;;;;2.53;1.90;;;;;;;-148.93;100.00;62180.91;20962986;28;20044;-79
2022/03/10 18:43:51;;;;;;;3.22;1.80;;;;;;;-148.93;100.00;62180.91;20946578;28;20087;-78
2022/03/10 18:53:53;;;;;;;2.90;1.95;;;;;;;-148.93;100.00;62180.91;20976346;28;20558;-78
2022/03/10 19:03:55;;;;;;;1.98;1.73;;;;;;;-148.93;100.00;62180.91;20936630;28;20471;-79
2022/03/10 19:13:57;;;;;;;2.33;1.70;;;;;;;-148.93;100.00;62180.91;20898858;28;20053;-78
2022/03/10 19:23:59;;;;;;;2.08;1.50;;;;;;;-148.93;100.00;62180.91;20906295;28;20111;-78
2022/03/10 19:34:01;;;;;;;4.93;1.75;;;;;;;-148.93;100.00;62180.91;20825795;28;20060;-76
2022/03/10 19:44:03;;;;;;;1.58;1.48;;;;;;;-148.93;100.00;62180.91;20830833;28;20045;-77
2022/03/10 19:54:05;;;;;;;1.85;1.52;;;;;;;-148.93;100.00;62180.91;20903286;28;20059;-77
2022/03/10 20:04:07;;;;;;;1.63;1.48;;;;;;;-148.93;100.00;62180.91;20901994;28;20486;-77
2022/03/10 20:14:09;;;;;;;1.92;1.52;;;;;;;-148.93;100.00;62180.91;20936038;28;20040;-76
2022/03/10 20:24:11;;;;;;;2.15;1.50;;;;;;;-148.93;100.00;62180.91;20946282;28;20036;-77
2022/03/10 20:34:15;;;;;;;1.77;1.48;;;;;;;-148.93;100.00;62180.91;20927433;28;20033;-76
2022/03/10 20:44:17;;;;;;;1.58;1.45;;;;;;;-148.93;100.00;62180.91;20947797;28;20051;-76
2022/03/10 20:54:24;;;;;;;1.88;1.40;;;;;;;-148.93;100.00;62180.91;20964330;28;20079;-77
2022/03/10 21:04:26;;;;;;;2.70;1.55;;;;;;;-148.93;100.00;62180.91;20944894;28;20175;-77
2022/03/10 21:14:28;;;;;;;1.70;1.20;;;;;;;-148.93;100.00;62180.91;20951364;28;20033;-77
2022/03/10 21:24:30;;;;;;;1.70;1.10;;;;;;;-148.93;100.00;62180.91;20945609;28;20092;-76
2022/03/10 21:34:32;;;;;;;2.10;1.42;;;;;;;-148.93;100.00;62180.91;20926098;28;20056;-76
2022/03/10 21:44:34;;;;;;;1.20;1.10;;;;;;;-148.93;100.00;62180.91;20947017;28;20111;-77
2022/03/10 21:54:35;;;;;;;1.77;1.38;;;;;;;-148.93;100.00;62180.91;20959111;28;20040;-77
2022/03/10 22:04:37;;;;;;;1.40;1.30;;;;;;;-148.93;100.00;62180.91;20945719;28;20102;-77
2022/03/10 22:14:40;;;;;;;1.85;1.30;;;;;;;-148.93;100.00;62180.91;20933111;28;20049;-78
2022/03/10 22:24:42;;;;;;;2.03;1.40;;;;;;;-148.93;100.00;62180.91;20914405;28;20214;-76
2022/03/10 22:34:43;;;;;;;3.08;1.50;;;;;;;-148.93;100.00;62180.91;20942887;28;20039;-77
2022/03/10 22:44:45;;;;;;;2.70;1.60;;;;;;;-148.93;100.00;62180.91;20973845;28;20440;-77
2022/03/10 22:54:47;;;;;;;1.67;1.20;;;;;;;-148.93;100.00;62180.91;20954748;28;20139;-78
2022/03/10 23:15:10;;;;;;;2.08;1.42;;;;;;;-148.93;100.00;62180.91;20888822;28;20044;-77
2022/03/10 23:25:11;;;;;;;1.30;1.20;;;;;;;-148.93;100.00;62180.91;20873706;28;20057;-77
2022/03/10 23:35:15;;;;;;;1.30;1.20;;;;;;;-148.93;100.00;62180.91;20891938;28;20048;-77
2022/03/10 23:45:17;;;;;;;1.52;1.10;;;;;;;-148.93;100.00;62180.91;20908221;28;20053;-77
2022/03/10 23:55:19;;;;;;;1.50;1.25;;;;;;;-148.93;100.00;62180.91;20889629;28;20045;-77
